MTO Blagnac (MVFR) : visi 10km, tempé 12/, QNH1026 (LFMP Q1022, LFBZ Q1028)

Préparer un vol

un pilote averti en vaut deux !

Carte d'approche à vue : aérodrome de Muret (LFBR)

Jour/nuit à Toulouse:
Heure GMT (UTC) :

Toulouse, soleil :

Météo France

Cartes, prévisions météo aéronautiques officielles

Windy

Visualisation météo avancée

NOTAM

Recherche route étroite

SUP AIP

Complément à l'information aéronautique

Accueil

Notamment à l'aide des outils ci-dessus, la préparation d'un vol consiste à rassembler les éléments qui permettront de connaître ses conditions en 4 dimensions.
Ces sources alimentent l'élément le plus important d'un vol : la prise de décision, qui mènera au maintien, la modification ou l'annulation d'un vol.

Cette information se trouve sur les cartes de navigation, les cartes de prévision météo, et autres publications aéronautiques.
Concernant spécifiquement l'aérodrome de Muret, l'information disponible au jour le jour consiste en ce qui suit :

  • Messages d'observation et de prévision météo : METAR à Muret, TAF à Blagnac
  • Messages d'information d'aérodrome à Muret : les NOtices TO AirMen (NOTAM)
  • L'éphéméride : nécessaire pour séparer le vol de jour du vol de nuit, les jour et nuit aéronautiques sont situés, respectivement, 30 minutes avant le lever et 30 minutes après le coucher de soleil.

Ces informations, ainsi que la carte d'approche à vue sur l'aérodrome de Muret, sont disponibles ci-contre.

METAR / TAF Muret et Blagnac

LFBR - MURET LHERM

METAR LFBR 220730Z AUTO 27012KT 9999 BKN018 BKN031 OVC049 12/10 Q1026=

LFBO - TOULOUSE BLAGNAC

METAR LFBO 220730Z AUTO 28013KT 9999 -RA BKN012 BKN018 BKN026 12/10 Q1026 BECMG OVC016=

TAF LFBO 220500Z 2206/2312 27012KT 9999 OVC012 BECMG 2206/2208 OVC016 BECMG 2212/2214 27018G30KT BECMG 2214/2216 OVC011 TEMPO 2214/2218 4000 -RADZ OVC009 BECMG 2219/2221 30010KT SCT015 BKN030 BECMG 2300/2303 VRB02KT BECMG 2305/2307 4000 BR BECMG 2307/2309 OVC004 PROB40 2306/2310 2000 OVC002 BECMG 2311/2312 8000 NSW SCT008=


Source : Navigeo

NOTAM Muret


LFFA-D5748/17
Q) LFBB/QSTAH/IV/ BO/ A/000/999/4327N00116E005
A) LFBR MURET LHERM
B) 2018 Jan 02 08:00 C) 2018 Jan 27 19:00
E) HORAIRES CONTROLE D'AERODROME(LF-R81):
LUNDI AU SAMEDI:0800 - SS+30
EXTENSION POSSIBLE DU LUNDI AU VENDREDI JUSQU'A 19HR SUR PPR LE JOUR
MEME AVANT 15HR
EXTENSION POSSIBLE LE MARDI JUSQU'A 23H00 SUR PPR LE JOUR MEME AVANT
15HR.
DIMANCHE: NON ASSURE.


LFFA-D0183/18
Q) LFBB/QMRLC/IV/NBO/ A/000/999/4327N00116E005
A) LFBR MURET LHERM
B) 2018 Jan 16 15:53 C) 2018 Mar 16 16:00
E) PISTE NON REVETUE AVION FERMEE


LFFA-D0188/18
Q) LFBB/QLPAS/IV/ BO/ A/000/999/4327N00116E005
A) LFBR MURET LHERM
B) 2018 Jan 17 08:00 C) 2018 Apr 13 17:00
E) PAPI RWY 12 HORS SERVICE.

Source : Navigeo